Time;durP1;ratioP1;P1;durP2;ratioP2;P2;SDS_P1;SDS_P2;PMS_P1;PMS_P2;Temp;Humidity;BMP_temperature;BMP_pressure;BME280_temperature;BME280_humidity;BME280_pressure;Samples;Min_cycle;Max_cycle;Signal;HPM_P1;HPM_P2
2022/07/15 00:01:33;;;;;;;5.77;5.37;;;23.10;92.30;;;;;;6226277;28;20229;-66
2022/07/15 00:04:37;;;;;;;6.53;6.03;;;23.10;92.50;;;;;;6226236;28;20232;-66
2022/07/15 00:07:40;;;;;;;6.27;5.87;;;23.00;92.70;;;;;;6225532;28;20709;-64
2022/07/15 00:10:43;;;;;;;6.50;6.00;;;22.90;93.10;;;;;;6225739;28;20236;-64
2022/07/15 00:13:47;;;;;;;7.10;6.40;;;22.90;93.30;;;;;;6221311;28;20287;-64
2022/07/15 00:16:51;;;;;;;6.43;5.93;;;22.90;93.50;;;;;;6225997;28;20233;-64
2022/07/15 00:19:54;;;;;;;6.90;6.30;;;22.80;93.80;;;;;;6226228;28;20255;-65
2022/07/15 00:22:58;;;;;;;6.30;5.80;;;22.80;93.90;;;;;;6226429;28;20225;-64
2022/07/15 00:26:01;;;;;;;6.93;6.50;;;22.70;93.80;;;;;;6226064;28;20239;-64
2022/07/15 00:29:04;;;;;;;6.57;6.07;;;22.50;94.10;;;;;;6225885;28;20663;-64
2022/07/15 00:32:08;;;;;;;6.77;6.27;;;22.60;94.50;;;;;;6226400;28;20240;-64
2022/07/15 00:35:12;;;;;;;6.67;6.17;;;22.60;94.60;;;;;;6225977;28;20235;-64
2022/07/15 00:38:15;;;;;;;6.47;5.97;;;22.50;94.30;;;;;;6226333;28;20562;-63
2022/07/15 00:41:18;;;;;;;6.70;6.10;;;22.50;94.30;;;;;;6225317;28;20248;-63
2022/07/15 00:44:21;;;;;;;6.63;6.13;;;22.50;94.20;;;;;;6225582;28;20240;-64
2022/07/15 00:47:26;;;;;;;8.53;6.73;;;22.50;94.20;;;;;;6225542;28;20686;-63
2022/07/15 00:50:30;;;;;;;6.53;6.00;;;22.60;93.90;;;;;;6225112;28;20244;-64
2022/07/15 00:53:36;;;;;;;6.93;6.43;;;22.60;93.80;;;;;;6225389;28;20233;-64
2022/07/15 00:56:46;;;;;;;5.80;5.40;;;22.70;93.50;;;;;;6225214;28;20660;-64
2022/07/15 00:59:51;;;;;;;6.37;5.77;;;22.70;93.20;;;;;;6225022;28;20240;-64
2022/07/15 01:02:56;;;;;;;6.33;5.73;;;22.70;92.70;;;;;;6225093;28;20675;-64
2022/07/15 01:05:59;;;;;;;7.20;5.90;;;22.80;92.30;;;;;;6224923;28;20225;-64
2022/07/15 01:09:04;;;;;;;6.30;5.80;;;22.80;92.30;;;;;;6224632;28;20225;-63
2022/07/15 01:12:07;;;;;;;6.33;5.83;;;22.90;92.50;;;;;;6224706;28;20521;-63
2022/07/15 01:15:11;;;;;;;6.37;5.80;;;22.90;92.60;;;;;;6225140;28;20201;-64
2022/07/15 01:18:16;;;;;;;6.90;6.20;;;22.90;92.60;;;;;;6220873;28;20225;-64
2022/07/15 01:21:21;;;;;;;6.07;5.57;;;22.90;92.80;;;;;;6225062;28;20237;-64
2022/07/15 01:24:24;;;;;;;7.03;6.50;;;22.70;92.50;;;;;;6224971;28;20236;-65
2022/07/15 01:27:27;;;;;;;5.63;5.23;;;22.50;92.90;;;;;;6225173;28;20400;-64
2022/07/15 01:30:31;;;;;;;5.93;5.43;;;22.30;93.10;;;;;;6224937;28;20233;-64
2022/07/15 01:33:34;;;;;;;5.80;5.40;;;22.30;93.20;;;;;;6225026;28;20229;-64
2022/07/15 01:36:39;;;;;;;6.40;6.00;;;22.30;93.10;;;;;;6226117;28;20228;-64
2022/07/15 01:39:42;;;;;;;5.70;5.20;;;22.30;93.30;;;;;;6229062;28;20706;-63
2022/07/15 01:42:45;;;;;;;6.00;5.60;;;22.20;93.80;;;;;;6229740;28;20225;-63
2022/07/15 01:45:49;;;;;;;6.17;5.67;;;22.30;93.50;;;;;;6229043;28;20232;-63
2022/07/15 01:52:14;;;;;;;5.73;5.23;;;22.40;93.30;;;;;;6229099;28;20230;-64
2022/07/15 01:55:17;;;;;;;5.97;5.57;;;22.40;93.30;;;;;;6230864;28;20228;-64
2022/07/15 01:58:20;;;;;;;8.90;5.23;;;22.40;93.00;;;;;;6229923;28;20237;-63
2022/07/15 02:01:23;;;;;;;5.00;4.70;;;22.50;92.80;;;;;;6230133;28;20233;-63
2022/07/15 02:04:27;;;;;;;5.53;5.10;;;22.50;92.40;;;;;;6228850;28;20550;-63
2022/07/15 02:07:32;;;;;;;5.70;5.30;;;22.60;92.40;;;;;;6229198;28;20229;-63
2022/07/15 02:10:40;;;;;;;6.33;5.83;;;22.70;92.50;;;;;;6228305;28;20240;-63
2022/07/15 02:13:43;;;;;;;5.13;4.83;;;22.70;92.60;;;;;;6236806;28;20232;-64
2022/07/15 02:16:46;;;;;;;6.43;5.63;;;22.60;92.60;;;;;;6240555;28;20252;-64
2022/07/15 02:19:49;;;;;;;5.80;4.80;;;22.50;92.40;;;;;;6228872;28;20343;-64
2022/07/15 02:22:57;;;;;;;5.23;4.83;;;22.40;92.30;;;;;;6219725;28;20235;-64
2022/07/15 02:26:00;;;;;;;5.40;5.00;;;22.30;92.30;;;;;;6228149;28;20376;-64
2022/07/15 02:29:03;;;;;;;4.63;4.20;;;22.40;92.50;;;;;;6228290;28;20228;-64
2022/07/15 02:32:07;;;;;;;4.63;4.33;;;22.30;92.50;;;;;;6228208;28;20667;-64
2022/07/15 02:35:11;;;;;;;5.57;5.07;;;22.40;92.50;;;;;;6228535;28;20229;-64
2022/07/15 02:38:15;;;;;;;5.27;4.67;;;22.30;92.40;;;;;;6228183;28;20323;-64
2022/07/15 02:41:18;;;;;;;4.67;4.37;;;22.30;92.40;;;;;;6227937;28;20256;-64
2022/07/15 02:44:21;;;;;;;4.50;4.10;;;22.20;92.70;;;;;;6227436;28;20229;-64
2022/07/15 02:47:24;;;;;;;5.23;4.73;;;22.10;92.40;;;;;;6227185;28;20599;-64
2022/07/15 02:50:28;;;;;;;4.10;3.80;;;22.10;92.40;;;;;;6226657;28;20590;-64
2022/07/15 02:53:33;;;;;;;5.20;4.70;;;22.10;92.60;;;;;;6227663;28;20225;-64
2022/07/15 02:56:36;;;;;;;4.40;4.03;;;22.10;92.70;;;;;;6227460;28;20229;-64
2022/07/15 02:59:39;;;;;;;4.67;4.37;;;22.10;92.80;;;;;;6227162;28;20244;-64
2022/07/15 03:02:42;;;;;;;4.73;4.33;;;22.10;92.90;;;;;;6226978;28;20225;-64
2022/07/15 03:05:46;;;;;;;7.40;4.43;;;22.00;93.10;;;;;;6227085;28;20232;-65
2022/07/15 03:08:50;;;;;;;5.30;4.80;;;22.00;93.10;;;;;;6227287;28;20248;-64
2022/07/15 03:11:53;;;;;;;5.53;4.57;;;22.00;93.20;;;;;;6227169;28;20233;-64
2022/07/15 03:14:57;;;;;;;5.07;4.40;;;22.00;93.40;;;;;;6227134;28;20233;-64
2022/07/15 03:18:00;;;;;;;4.67;4.27;;;22.00;93.50;;;;;;6226897;28;20233;-64
2022/07/15 03:21:03;;;;;;;5.33;4.20;;;22.00;93.60;;;;;;6226546;28;20683;-64
2022/07/15 03:24:09;;;;;;;5.10;4.23;;;22.00;93.70;;;;;;6222722;28;20209;-64
2022/07/15 03:27:12;;;;;;;5.23;4.73;;;21.90;93.80;;;;;;6226846;28;20201;-64
2022/07/15 03:30:16;;;;;;;5.33;4.60;;;22.00;93.90;;;;;;6226501;28;20229;-64
2022/07/15 03:33:19;;;;;;;4.77;4.33;;;22.00;94.00;;;;;;6226667;28;20335;-64
2022/07/15 03:36:23;;;;;;;4.60;4.20;;;22.00;94.10;;;;;;6226528;28;20632;-64
2022/07/15 03:39:27;;;;;;;4.60;4.20;;;22.00;93.70;;;;;;6226661;28;20551;-64
2022/07/15 03:42:31;;;;;;;5.20;4.63;;;22.00;93.90;;;;;;6226457;28;20225;-64
2022/07/15 03:45:34;;;;;;;6.00;4.97;;;22.10;93.80;;;;;;6226267;28;20232;-64
2022/07/15 03:48:37;;;;;;;5.43;5.03;;;22.20;94.00;;;;;;6226309;28;20551;-64
2022/07/15 03:51:40;;;;;;;5.17;4.67;;;22.20;94.00;;;;;;6226181;28;20229;-64
2022/07/15 03:54:45;;;;;;;5.10;4.70;;;22.20;94.00;;;;;;6226194;28;20583;-64
2022/07/15 03:57:48;;;;;;;4.60;4.20;;;22.20;93.90;;;;;;6225845;28;20251;-64
2022/07/15 04:00:51;;;;;;;4.57;4.27;;;22.20;93.90;;;;;;6225638;28;20545;-64
2022/07/15 04:03:54;;;;;;;5.00;4.60;;;22.20;93.90;;;;;;6226044;28;20261;-64
2022/07/15 04:06:57;;;;;;;5.70;5.17;;;22.20;94.10;;;;;;6226197;28;20228;-64
2022/07/15 04:10:02;;;;;;;4.67;4.27;;;22.20;94.00;;;;;;6226522;28;20232;-64
2022/07/15 04:13:05;;;;;;;5.63;5.17;;;22.20;93.90;;;;;;6226365;28;20551;-64
2022/07/15 04:16:11;;;;;;;6.03;5.57;;;22.30;93.90;;;;;;6225910;28;20232;-64
2022/07/15 04:19:15;;;;;;;4.87;4.47;;;22.30;93.70;;;;;;6226109;28;20344;-64
2022/07/15 04:22:18;;;;;;;5.80;5.30;;;22.20;93.70;;;;;;6226844;28;20241;-63
2022/07/15 04:25:23;;;;;;;7.77;4.63;;;22.30;93.90;;;;;;6226033;28;20575;-63
2022/07/15 04:28:27;;;;;;;10.67;5.97;;;22.30;94.10;;;;;;6225064;28;20270;-64
2022/07/15 04:31:30;;;;;;;5.57;5.13;;;22.20;94.20;;;;;;6225681;28;20241;-64
2022/07/15 04:34:33;;;;;;;9.43;5.43;;;22.20;94.20;;;;;;6225539;28;20553;-64
2022/07/15 04:37:37;;;;;;;5.37;4.97;;;22.20;93.80;;;;;;6225397;28;20255;-64
2022/07/15 04:40:42;;;;;;;5.90;5.37;;;22.20;93.80;;;;;;6225525;28;20244;-64
2022/07/15 04:43:47;;;;;;;5.70;5.20;;;22.30;94.00;;;;;;6225103;28;20259;-64
2022/07/15 04:46:50;;;;;;;5.70;5.13;;;22.40;94.10;;;;;;6225226;28;20229;-64
2022/07/15 04:53:14;;;;;;;6.20;5.70;;;22.50;93.70;;;;;;6225278;28;20690;-64
2022/07/15 04:56:19;;;;;;;5.40;5.00;;;22.60;94.00;;;;;;6224682;28;20233;-64
2022/07/15 04:59:22;;;;;;;5.73;5.33;;;22.80;94.20;;;;;;6224713;28;20667;-64
2022/07/15 05:02:25;;;;;;;5.63;5.13;;;23.00;94.00;;;;;;6225066;28;20647;-64
2022/07/15 05:05:29;;;;;;;8.03;6.00;;;23.30;93.90;;;;;;6225035;28;20233;-64
2022/07/15 05:08:32;;;;;;;15.90;7.27;;;23.50;93.30;;;;;;6224940;28;20572;-64
2022/07/15 05:11:37;;;;;;;19.30;7.53;;;23.80;93.20;;;;;;6226079;28;20229;-64
2022/07/15 05:14:40;;;;;;;10.60;6.37;;;23.80;92.80;;;;;;6229800;28;20225;-64
2022/07/15 05:17:44;;;;;;;6.30;5.37;;;23.80;92.80;;;;;;6229719;28;20243;-64
2022/07/15 05:20:47;;;;;;;9.00;6.53;;;23.90;92.80;;;;;;6229682;28;20241;-63
2022/07/15 05:23:50;;;;;;;20.03;8.33;;;23.80;93.00;;;;;;6229859;28;20664;-63
2022/07/15 05:27:14;;;;;;;31.80;11.07;;;23.80;92.90;;;;;;6229338;28;20210;-63
2022/07/15 05:30:18;;;;;;;11.47;6.63;;;23.70;93.00;;;;;;6229807;28;20243;-63
2022/07/15 05:33:21;;;;;;;10.67;8.23;;;23.60;93.20;;;;;;6220119;28;20243;-64
2022/07/15 05:36:24;;;;;;;8.03;6.10;;;23.60;92.60;;;;;;6229382;28;20666;-63
2022/07/15 05:39:27;;;;;;;10.43;6.93;;;23.60;92.50;;;;;;6229366;28;20244;-64
2022/07/15 05:42:32;;;;;;;6.27;5.43;;;23.50;92.50;;;;;;6230720;28;20235;-63
2022/07/15 05:45:35;;;;;;;6.30;5.03;;;23.50;92.20;;;;;;6230882;28;20229;-63
2022/07/15 05:48:39;;;;;;;5.87;5.37;;;23.60;92.40;;;;;;6229477;28;20239;-63
2022/07/15 05:51:42;;;;;;;6.43;5.77;;;23.60;92.00;;;;;;6228902;28;20225;-64
2022/07/15 05:54:45;;;;;;;6.90;5.60;;;23.60;92.70;;;;;;6229372;28;20232;-64
2022/07/15 05:57:49;;;;;;;6.00;5.40;;;23.60;92.70;;;;;;6228633;28;20225;-64
2022/07/15 06:00:53;;;;;;;6.40;5.80;;;23.70;92.80;;;;;;6229327;28;20236;-64
2022/07/15 06:03:56;;;;;;;9.03;5.60;;;23.90;92.40;;;;;;6229856;28;20229;-64
2022/07/15 06:07:00;;;;;;;5.90;5.13;;;24.00;92.20;;;;;;6229450;28;20224;-65
2022/07/15 06:10:04;;;;;;;6.83;5.20;;;24.40;91.50;;;;;;6230708;28;20591;-65
2022/07/15 06:13:08;;;;;;;5.90;4.80;;;24.60;90.80;;;;;;6229293;28;20225;-64
2022/07/15 06:16:11;;;;;;;4.80;4.50;;;24.80;90.00;;;;;;6229184;28;20238;-64
2022/07/15 06:19:15;;;;;;;4.63;4.20;;;25.00;88.40;;;;;;6228890;28;20259;-64
2022/07/15 06:22:18;;;;;;;3.70;3.40;;;25.10;87.20;;;;;;6229197;28;20244;-64
2022/07/15 06:25:22;;;;;;;3.40;3.10;;;25.10;84.00;;;;;;6228726;28;20548;-64
2022/07/15 06:28:26;;;;;;;6.07;3.43;;;25.20;83.80;;;;;;6228853;28;20232;-64
2022/07/15 06:31:29;;;;;;;5.70;3.77;;;25.30;82.60;;;;;;6228604;28;20229;-65
2022/07/15 06:34:33;;;;;;;3.60;3.40;;;25.30;81.90;;;;;;6228311;28;20694;-64
2022/07/15 06:37:36;;;;;;;4.30;3.70;;;25.30;81.80;;;;;;6223777;28;20544;-65
2022/07/15 06:40:39;;;;;;;3.70;3.40;;;25.30;81.70;;;;;;6227858;28;20694;-65
2022/07/15 06:43:44;;;;;;;5.43;3.60;;;25.20;81.00;;;;;;6228438;28;20225;-64
2022/07/15 06:46:48;;;;;;;5.03;3.60;;;25.20;81.60;;;;;;6227995;28;20229;-64
2022/07/15 06:49:51;;;;;;;4.23;3.93;;;25.30;82.00;;;;;;6228904;28;20236;-65
2022/07/15 06:52:54;;;;;;;4.60;4.23;;;25.40;81.80;;;;;;6228939;28;20239;-64
2022/07/15 06:55:57;;;;;;;5.30;4.77;;;25.40;81.50;;;;;;6229547;28;20307;-64
2022/07/15 06:59:02;;;;;;;4.30;4.00;;;25.40;81.80;;;;;;6229475;28;20607;-65
2022/07/15 07:02:05;;;;;;;4.87;4.43;;;25.40;82.40;;;;;;6230177;28;20248;-64
2022/07/15 07:05:09;;;;;;;4.30;4.00;;;25.50;82.40;;;;;;6227585;28;20262;-65
2022/07/15 07:08:12;;;;;;;4.37;3.97;;;25.40;82.20;;;;;;6227623;28;20224;-64
2022/07/15 07:11:17;;;;;;;6.97;4.37;;;25.40;82.20;;;;;;6226735;28;20228;-65
2022/07/15 07:14:22;;;;;;;4.43;4.03;;;25.40;81.70;;;;;;6228274;28;20666;-64
2022/07/15 07:17:25;;;;;;;5.17;4.00;;;25.50;82.00;;;;;;6227473;28;20232;-64
2022/07/15 07:20:28;;;;;;;4.83;4.33;;;25.50;81.60;;;;;;6226486;28;20228;-64
2022/07/15 07:23:32;;;;;;;5.43;4.93;;;25.40;81.90;;;;;;6225577;28;20228;-64
2022/07/15 07:26:35;;;;;;;6.67;4.73;;;25.20;82.30;;;;;;6224309;28;20555;-64
2022/07/15 07:29:40;;;;;;;4.63;4.30;;;25.10;82.20;;;;;;6225143;28;20225;-64
2022/07/15 07:32:43;;;;;;;4.80;4.40;;;25.00;82.30;;;;;;6225239;28;20545;-64
2022/07/15 07:35:46;;;;;;;4.70;4.30;;;25.00;82.30;;;;;;6224028;28;20225;-65
2022/07/15 07:38:49;;;;;;;7.10;5.10;;;25.00;82.50;;;;;;6225478;28;20243;-64
2022/07/15 07:41:53;;;;;;;4.47;4.07;;;25.00;82.50;;;;;;6225909;28;20248;-64
2022/07/15 07:44:59;;;;;;;5.20;4.70;;;25.10;82.30;;;;;;6211849;28;20405;-64
2022/07/15 07:48:02;;;;;;;11.00;4.93;;;25.40;82.60;;;;;;6226004;28;20232;-64
2022/07/15 07:51:06;;;;;;;5.33;4.00;;;25.80;81.90;;;;;;6201054;28;20636;-64
2022/07/15 07:54:09;;;;;;;4.73;4.30;;;26.20;80.40;;;;;;6202017;28;20282;-64
2022/07/15 07:57:13;;;;;;;6.10;5.50;;;26.50;79.80;;;;;;6200259;28;20233;-63
2022/07/15 08:00:18;;;;;;;9.00;5.37;;;26.60;79.60;;;;;;6188681;28;20254;-63
2022/07/15 08:03:22;;;;;;;5.67;5.17;;;26.40;80.00;;;;;;6182928;28;20208;-64
2022/07/15 08:06:26;;;;;;;5.60;5.20;;;26.10;81.40;;;;;;6187271;28;20235;-63
2022/07/15 08:09:29;;;;;;;5.63;5.13;;;25.90;82.30;;;;;;6201418;28;20671;-64
2022/07/15 08:12:33;;;;;;;7.70;5.23;;;25.90;82.30;;;;;;6201359;28;20561;-62
2022/07/15 08:15:38;;;;;;;7.47;5.23;;;26.00;82.80;;;;;;6191349;28;20621;-63
2022/07/15 08:18:41;;;;;;;6.03;5.47;;;26.30;82.60;;;;;;6179722;28;20234;-63
2022/07/15 08:21:45;;;;;;;10.97;9.83;;;26.80;81.00;;;;;;6178405;28;20241;-64
2022/07/15 08:24:49;;;;;;;5.60;5.10;;;26.90;80.20;;;;;;6177640;28;20702;-64
2022/07/15 08:27:52;;;;;;;5.70;5.17;;;26.80;79.60;;;;;;6177737;28;20300;-63
2022/07/15 08:30:57;;;;;;;5.37;4.97;;;26.70;79.80;;;;;;6178421;28;20240;-63
2022/07/15 08:34:00;;;;;;;4.93;4.53;;;26.70;80.40;;;;;;6201706;28;20291;-62
2022/07/15 08:37:03;;;;;;;4.83;4.43;;;26.70;80.50;;;;;;6201356;28;20235;-62
2022/07/15 08:40:09;;;;;;;5.60;5.10;;;27.20;78.90;;;;;;6201476;28;20570;-62
2022/07/15 08:43:12;;;;;;;5.37;4.97;;;27.40;77.50;;;;;;6201521;28;20225;-63
2022/07/15 08:46:17;;;;;;;5.00;4.70;;;27.30;77.60;;;;;;6192963;28;20323;-63
2022/07/15 08:49:24;;;;;;;7.30;4.37;;;27.20;77.90;;;;;;6206001;28;20232;-63
2022/07/15 08:52:28;;;;;;;5.97;5.43;;;27.10;78.20;;;;;;6205991;28;20236;-63
2022/07/15 08:55:31;;;;;;;4.77;4.40;;;26.50;80.10;;;;;;6205939;28;20237;-63
2022/07/15 08:58:36;;;;;;;4.83;4.53;;;26.30;79.80;;;;;;6199752;28;20380;-63
2022/07/15 09:02:01;;;;;;;5.00;4.50;;;25.90;80.50;;;;;;6182179;28;20241;-63
2022/07/15 09:05:22;;;;;;;5.60;4.97;;;25.70;81.30;;;;;;6182181;28;20679;-63
2022/07/15 09:08:26;;;;;;;7.47;5.03;;;25.50;82.80;;;;;;6206058;28;20369;-62
2022/07/15 09:11:29;;;;;;;5.37;4.70;;;25.40;83.40;;;;;;6205475;28;20237;-63
2022/07/15 09:14:34;;;;;;;5.30;4.80;;;25.30;83.90;;;;;;6205767;28;20225;-62
2022/07/15 09:17:39;;;;;;;5.47;5.07;;;25.30;84.00;;;;;;6205333;28;20569;-62
2022/07/15 09:20:44;;;;;;;6.37;4.70;;;25.20;85.10;;;;;;6205744;28;20286;-62
2022/07/15 09:23:48;;;;;;;5.70;5.17;;;25.20;84.90;;;;;;6204970;28;20231;-62
2022/07/15 09:26:51;;;;;;;5.10;4.70;;;25.20;85.30;;;;;;6205055;28;20581;-62
2022/07/15 09:33:38;;;;;;;7.00;5.43;;;25.40;86.10;;;;;;6216066;28;20229;-63
2022/07/15 09:36:44;;;;;;;4.73;4.30;;;25.60;86.00;;;;;;6229522;28;20544;-63
2022/07/15 09:39:55;;;;;;;4.93;4.60;;;26.10;85.00;;;;;;6228637;28;20499;-63
2022/07/15 09:43:06;;;;;;;5.57;5.00;;;26.80;82.50;;;;;;6229258;28;20220;-63
2022/07/15 09:46:09;;;;;;;7.33;5.30;;;26.60;81.90;;;;;;6229151;28;20674;-63
2022/07/15 09:49:16;;;;;;;5.57;5.03;;;26.90;81.30;;;;;;6223996;28;20244;-63
2022/07/15 09:52:19;;;;;;;5.40;5.00;;;26.90;80.00;;;;;;6229228;28;20228;-64
2022/07/15 09:55:22;;;;;;;6.07;5.43;;;26.50;80.60;;;;;;6228398;28;20235;-64
2022/07/15 09:58:26;;;;;;;4.97;4.67;;;26.40;81.10;;;;;;6226738;28;20693;-62
2022/07/15 10:01:29;;;;;;;5.57;5.17;;;26.30;82.00;;;;;;6203858;28;20240;-62
2022/07/15 10:04:34;;;;;;;5.37;4.83;;;26.00;82.30;;;;;;6205072;28;20304;-62
2022/07/15 10:07:39;;;;;;;5.57;5.20;;;25.80;84.00;;;;;;6184932;28;20234;-62
2022/07/15 10:10:42;;;;;;;5.03;4.53;;;25.80;84.00;;;;;;6182473;28;20245;-62
2022/07/15 10:14:02;;;;;;;5.90;5.40;;;25.90;83.60;;;;;;6179996;28;20230;-62
2022/07/15 10:17:41;;;;;;;4.90;4.50;;;26.00;84.00;;;;;;6181553;28;20324;-62
2022/07/15 10:21:09;;;;;;;5.20;4.53;;;25.90;83.60;;;;;;6180140;28;20320;-62
2022/07/15 10:24:33;;;;;;;4.60;4.20;;;26.20;83.00;;;;;;6179984;28;20694;-62
2022/07/15 10:27:55;;;;;;;4.67;4.20;;;26.90;81.30;;;;;;6183561;28;20268;-63
2022/07/15 10:31:16;;;;;;;4.97;4.50;;;26.90;80.70;;;;;;6203435;28;20225;-63
2022/07/15 10:34:20;;;;;;;4.27;3.50;;;27.40;80.10;;;;;;6204016;28;20694;-63
2022/07/15 10:37:27;;;;;;;6.10;4.03;;;27.60;79.50;;;;;;6203431;28;20340;-63
2022/07/15 10:41:00;;;;;;;4.87;4.47;;;27.90;79.50;;;;;;6203857;28;20229;-62
2022/07/15 10:44:11;;;;;;;5.30;5.00;;;28.30;77.80;;;;;;6200978;28;20667;-61
2022/07/15 10:47:19;;;;;;;4.80;4.50;;;28.20;77.40;;;;;;6203641;28;20815;-61
2022/07/15 10:50:39;;;;;;;4.87;4.50;;;28.10;77.90;;;;;;6203575;28;20249;-62
2022/07/15 10:53:47;;;;;;;6.20;5.60;;;28.40;77.40;;;;;;6203519;28;20237;-62
2022/07/15 10:56:51;;;;;;;5.07;4.77;;;28.40;76.10;;;;;;6203689;28;20237;-62
2022/07/15 10:59:56;;;;;;;4.70;4.30;;;28.50;75.80;;;;;;6203105;28;20252;-62
2022/07/15 11:03:05;;;;;;;5.83;5.40;;;28.50;75.90;;;;;;6202748;28;20814;-62
2022/07/15 11:06:09;;;;;;;5.10;4.70;;;28.60;75.60;;;;;;6217615;28;20197;-62
2022/07/15 11:09:33;;;;;;;4.97;4.57;;;28.60;75.40;;;;;;6202762;28;20240;-62
2022/07/15 11:12:59;;;;;;;4.90;4.43;;;28.50;75.90;;;;;;6202544;28;20675;-62
2022/07/15 11:16:03;;;;;;;4.73;4.43;;;28.30;76.30;;;;;;6202420;28;20240;-62
2022/07/15 11:19:12;;;;;;;4.53;4.23;;;28.00;76.90;;;;;;6202464;28;20229;-62
2022/07/15 11:22:18;;;;;;;5.97;5.17;;;27.80;78.10;;;;;;6202547;28;20233;-62
2022/07/15 11:25:24;;;;;;;4.90;4.60;;;27.80;79.30;;;;;;6202419;28;20653;-61
2022/07/15 11:28:27;;;;;;;5.77;5.23;;;27.60;78.30;;;;;;6202936;28;20255;-62
2022/07/15 11:31:40;;;;;;;4.87;4.57;;;27.50;79.70;;;;;;6202728;28;20542;-62
2022/07/15 11:34:45;;;;;;;5.27;4.87;;;27.20;80.00;;;;;;6202329;28;20233;-62
2022/07/15 11:37:49;;;;;;;5.13;4.80;;;26.70;81.40;;;;;;6201940;28;20251;-62
2022/07/15 11:44:32;;;;;;;5.97;5.37;;;26.90;81.80;;;;;;6187210;28;20226;-62
2022/07/15 11:47:35;;;;;;;5.63;5.23;;;26.90;81.30;;;;;;6202388;28;20225;-62
2022/07/15 11:50:49;;;;;;;6.20;5.70;;;26.40;83.10;;;;;;6201449;28;20236;-62
2022/07/15 11:53:52;;;;;;;6.40;6.00;;;26.50;83.50;;;;;;6202257;28;20237;-63
2022/07/15 11:56:58;;;;;;;5.90;5.47;;;26.70;82.50;;;;;;6201528;28;20886;-62
2022/07/15 12:00:02;;;;;;;5.57;5.17;;;26.50;83.90;;;;;;6192597;28;20280;-62
2022/07/15 12:03:08;;;;;;;6.67;6.23;;;26.40;84.50;;;;;;6200575;28;20667;-62
2022/07/15 12:06:15;;;;;;;5.67;5.20;;;26.70;83.80;;;;;;6216082;28;20193;-62
2022/07/15 12:09:19;;;;;;;5.50;5.10;;;26.90;83.00;;;;;;6201208;28;20233;-62
2022/07/15 12:12:24;;;;;;;5.57;5.20;;;26.40;84.60;;;;;;6200023;28;20208;-62
2022/07/15 12:15:27;;;;;;;6.30;5.83;;;26.40;84.50;;;;;;6204795;28;20248;-62
2022/07/15 12:18:30;;;;;;;6.73;6.23;;;26.00;84.90;;;;;;6213771;28;20233;-63
2022/07/15 12:21:34;;;;;;;6.10;5.60;;;25.70;86.70;;;;;;6200322;28;20229;-63
2022/07/15 12:24:42;;;;;;;5.50;5.13;;;25.70;87.30;;;;;;6200372;28;20895;-62
2022/07/15 12:27:46;;;;;;;6.23;5.73;;;25.90;86.20;;;;;;6200298;28;20235;-62
2022/07/15 12:30:50;;;;;;;7.27;5.70;;;25.60;86.10;;;;;;6201608;28;20229;-63
2022/07/15 12:33:53;;;;;;;6.10;5.53;;;25.10;88.30;;;;;;6201425;28;20229;-63
2022/07/15 12:36:57;;;;;;;7.03;6.30;;;25.00;88.60;;;;;;6200641;28;20248;-62
2022/07/15 12:40:03;;;;;;;6.37;5.80;;;25.00;89.20;;;;;;6199779;28;20237;-62
2022/07/15 12:43:09;;;;;;;6.27;5.87;;;25.20;88.60;;;;;;6200447;28;20374;-62
2022/07/15 12:46:12;;;;;;;5.90;5.50;;;25.30;88.10;;;;;;6200337;28;20229;-62
2022/07/15 12:49:53;;;;;;;6.67;6.17;;;25.40;88.30;;;;;;6200666;28;20233;-61
2022/07/15 12:52:57;;;;;;;6.10;5.53;;;25.50;88.10;;;;;;6200582;28;20229;-61
2022/07/15 12:56:01;;;;;;;5.97;5.47;;;25.50;87.90;;;;;;6201059;28;20240;-61
2022/07/15 12:59:06;;;;;;;6.47;5.87;;;25.40;88.10;;;;;;6200662;28;20805;-62
2022/07/15 13:02:10;;;;;;;6.00;5.60;;;25.60;87.90;;;;;;6191116;28;20237;-62
2022/07/15 13:05:13;;;;;;;6.63;6.13;;;25.40;87.40;;;;;;6201171;28;20259;-62
2022/07/15 13:08:18;;;;;;;6.30;5.27;;;25.20;88.10;;;;;;6200994;28;20236;-62
2022/07/15 13:11:24;;;;;;;6.83;6.23;;;25.20;87.70;;;;;;6200712;28;20240;-62
2022/07/15 13:14:29;;;;;;;6.77;6.27;;;25.00;88.50;;;;;;6200562;28;20237;-62
2022/07/15 13:17:32;;;;;;;7.57;6.97;;;25.00;89.00;;;;;;6200538;28;20237;-61
2022/07/15 13:20:36;;;;;;;6.93;6.43;;;24.60;89.50;;;;;;6200835;28;20240;-61
2022/07/15 13:23:39;;;;;;;6.90;6.40;;;24.40;90.30;;;;;;6200760;28;20240;-61
2022/07/15 13:26:42;;;;;;;5.90;5.50;;;24.20;90.60;;;;;;6200562;28;20222;-62
2022/07/15 13:29:47;;;;;;;6.87;6.37;;;24.40;90.80;;;;;;6200362;28;20568;-62
2022/07/15 13:32:50;;;;;;;6.07;5.67;;;24.50;90.50;;;;;;6201766;28;20245;-62
2022/07/15 13:35:54;;;;;;;7.30;6.80;;;24.50;90.90;;;;;;6205576;28;20225;-62
2022/07/15 13:38:57;;;;;;;6.67;6.23;;;24.80;90.20;;;;;;6204764;28;20245;-62
2022/07/15 13:42:01;;;;;;;6.10;5.60;;;25.00;89.90;;;;;;6204885;28;20229;-62
2022/07/15 13:45:07;;;;;;;6.77;6.17;;;25.10;89.70;;;;;;6204680;28;20657;-62
2022/07/15 13:48:10;;;;;;;6.50;5.97;;;25.00;89.70;;;;;;6229441;28;20205;-63
2022/07/15 13:51:26;;;;;;;7.07;6.37;;;24.90;89.50;;;;;;6229360;28;20209;-62
2022/07/15 13:54:29;;;;;;;7.10;6.50;;;24.70;89.90;;;;;;6229463;28;20228;-62
2022/07/15 13:57:32;;;;;;;6.50;6.10;;;24.80;90.10;;;;;;6229284;28;20236;-62
2022/07/15 14:00:39;;;;;;;6.80;6.30;;;24.90;90.00;;;;;;6228995;28;20556;-62
2022/07/15 14:03:43;;;;;;;7.77;7.03;;;24.80;89.90;;;;;;6220218;28;20396;-62
2022/07/15 14:06:47;;;;;;;7.40;6.80;;;24.50;90.00;;;;;;6209118;28;20253;-62
2022/07/15 14:09:51;;;;;;;8.07;7.57;;;24.30;90.70;;;;;;6209569;28;20237;-62
2022/07/15 14:12:55;;;;;;;8.03;7.43;;;24.00;91.40;;;;;;6207196;28;20671;-62
2022/07/15 14:15:59;;;;;;;7.37;6.77;;;24.10;91.90;;;;;;6204331;28;20233;-62
2022/07/15 14:19:03;;;;;;;8.17;7.57;;;24.20;91.90;;;;;;6204593;28;20240;-62
2022/07/15 14:22:06;;;;;;;9.20;8.50;;;24.20;92.20;;;;;;6205000;28;20739;-62
2022/07/15 14:25:10;;;;;;;9.40;8.50;;;24.00;92.60;;;;;;6207273;28;20572;-62
2022/07/15 14:28:14;;;;;;;9.60;8.90;;;23.70;93.50;;;;;;6205613;28;20234;-62
2022/07/15 14:31:19;;;;;;;9.50;8.67;;;23.50;93.70;;;;;;6204465;28;20735;-61
2022/07/15 14:34:24;;;;;;;9.37;8.67;;;23.20;94.10;;;;;;6204055;28;20229;-62
2022/07/15 14:37:27;;;;;;;9.53;8.60;;;22.90;95.20;;;;;;6204213;28;20376;-62
2022/07/15 14:40:36;;;;;;;9.50;8.70;;;22.80;95.80;;;;;;6204494;28;20241;-62
2022/07/15 14:43:39;;;;;;;10.40;9.50;;;22.90;96.40;;;;;;6203091;28;20541;-62
2022/07/15 14:46:44;;;;;;;10.17;9.30;;;22.90;96.20;;;;;;6203443;28;20249;-62
2022/07/15 14:49:47;;;;;;;10.57;9.73;;;22.90;96.30;;;;;;6202451;28;20238;-62
2022/07/15 14:52:50;;;;;;;9.10;8.50;;;22.90;96.40;;;;;;6202888;28;20569;-62
2022/07/15 14:55:54;;;;;;;9.47;8.77;;;22.80;96.60;;;;;;6202906;28;20633;-61
2022/07/15 14:58:57;;;;;;;11.17;10.17;;;22.70;97.00;;;;;;6203199;28;20248;-62
2022/07/15 15:02:02;;;;;;;9.50;8.80;;;22.50;97.30;;;;;;6203198;28;20230;-62
2022/07/15 15:05:06;;;;;;;10.27;9.47;;;22.40;97.70;;;;;;6203043;28;20550;-62
2022/07/15 15:08:09;;;;;;;10.73;9.73;;;22.30;98.10;;;;;;6198529;28;20363;-62
2022/07/15 15:11:13;;;;;;;13.07;10.93;;;22.30;98.50;;;;;;6203017;28;20233;-62
2022/07/15 15:14:16;;;;;;;10.80;10.00;;;22.30;98.90;;;;;;6202646;28;20230;-62
2022/07/15 15:17:20;;;;;;;11.63;10.70;;;22.30;99.40;;;;;;6202770;28;20229;-62
2022/07/15 15:20:24;;;;;;;10.40;9.50;;;22.30;99.40;;;;;;6202533;28;20237;-62
2022/07/15 15:23:27;;;;;;;11.00;10.10;;;22.30;99.40;;;;;;6202615;28;20360;-62
2022/07/15 15:26:31;;;;;;;11.50;10.53;;;22.30;99.70;;;;;;6202593;28;20236;-62
2022/07/15 15:29:34;;;;;;;11.63;10.47;;;22.10;99.90;;;;;;6202170;28;20253;-61
2022/07/15 15:32:39;;;;;;;12.07;10.87;;;22.10;99.90;;;;;;6203108;28;20308;-62
2022/07/15 15:35:42;;;;;;;12.03;11.10;;;22.10;99.90;;;;;;6202431;28;20244;-62
2022/07/15 15:38:45;;;;;;;11.87;10.93;;;22.00;99.90;;;;;;6202655;28;20234;-62
2022/07/15 15:41:49;;;;;;;12.73;11.73;;;21.90;99.90;;;;;;6202197;28;20245;-62
2022/07/15 15:44:52;;;;;;;12.73;11.60;;;21.80;99.90;;;;;;6202313;28;20230;-62
2022/07/15 15:47:57;;;;;;;12.50;11.50;;;21.80;99.90;;;;;;6202416;28;20222;-62
2022/07/15 15:51:00;;;;;;;12.87;11.80;;;21.70;99.90;;;;;;6201848;28;20226;-62
2022/07/15 15:54:03;;;;;;;12.00;11.00;;;21.60;99.90;;;;;;6202152;28;20240;-60
2022/07/15 15:57:06;;;;;;;13.20;11.90;;;21.60;99.90;;;;;;6197887;28;20225;-62
2022/07/15 16:00:11;;;;;;;12.73;11.83;;;21.60;99.90;;;;;;6201125;28;20244;-61
2022/07/15 16:03:16;;;;;;;13.30;12.20;;;21.70;99.90;;;;;;6201871;28;20348;-61
2022/07/15 16:06:19;;;;;;;12.60;11.57;;;21.60;99.90;;;;;;6201763;28;20551;-61
2022/07/15 16:09:25;;;;;;;12.67;11.73;;;21.60;99.90;;;;;;6200368;28;20228;-61
2022/07/15 16:12:28;;;;;;;12.43;11.50;;;21.50;99.90;;;;;;6196667;28;20408;-60
2022/07/15 16:15:32;;;;;;;11.60;10.50;;;21.40;99.90;;;;;;6203651;28;20239;-61